sensor_id;sensor_type;location;lat;lon;timestamp;temperature;humidity
75786;DHT22;64402;44.708;37.644;2023-03-31T00:00:51;2.90;85.19
75786;DHT22;64402;44.708;37.644;2023-03-31T00:03:17;2.94;85.42
75786;DHT22;64402;44.708;37.644;2023-03-31T00:05:54;3.02;84.73
75786;DHT22;64402;44.708;37.644;2023-03-31T00:08:21;3.08;84.90
75786;DHT22;64402;44.708;37.644;2023-03-31T00:10:47;3.08;84.71
75786;DHT22;64402;44.708;37.644;2023-03-31T00:13:13;3.17;84.66
75786;DHT22;64402;44.708;37.644;2023-03-31T00:15:40;3.11;84.75
75786;DHT22;64402;44.708;37.644;2023-03-31T00:18:06;3.17;84.60
75786;DHT22;64402;44.708;37.644;2023-03-31T00:20:33;3.19;84.70
75786;DHT22;64402;44.708;37.644;2023-03-31T00:23:03;3.23;84.52
75786;DHT22;64402;44.708;37.644;2023-03-31T00:25:38;3.21;84.19
75786;DHT22;64402;44.708;37.644;2023-03-31T00:28:05;3.24;84.29
75786;DHT22;64402;44.708;37.644;2023-03-31T00:30:32;3.23;84.27
75786;DHT22;64402;44.708;37.644;2023-03-31T00:32:58;3.15;83.90
75786;DHT22;64402;44.708;37.644;2023-03-31T00:35:25;3.24;84.42
75786;DHT22;64402;44.708;37.644;2023-03-31T00:37:51;3.32;83.66
75786;DHT22;64402;44.708;37.644;2023-03-31T00:40:18;3.34;84.54
75786;DHT22;64402;44.708;37.644;2023-03-31T00:42:45;3.35;84.84
75786;DHT22;64402;44.708;37.644;2023-03-31T00:48:00;3.28;83.91
75786;DHT22;64402;44.708;37.644;2023-03-31T00:50:32;3.38;84.60
75786;DHT22;64402;44.708;37.644;2023-03-31T00:53:11;3.40;84.42
75786;DHT22;64402;44.708;37.644;2023-03-31T00:55:42;3.45;84.06
75786;DHT22;64402;44.708;37.644;2023-03-31T00:58:11;3.41;84.21
75786;DHT22;64402;44.708;37.644;2023-03-31T01:00:46;3.38;82.90
75786;DHT22;64402;44.708;37.644;2023-03-31T01:03:13;3.30;83.14
75786;DHT22;64402;44.708;37.644;2023-03-31T01:08:17;3.25;82.68
75786;DHT22;64402;44.708;37.644;2023-03-31T01:11:01;3.32;79.15
75786;DHT22;64402;44.708;37.644;2023-03-31T01:13:29;3.47;81.17
75786;DHT22;64402;44.708;37.644;2023-03-31T01:15:56;3.53;81.14
75786;DHT22;64402;44.708;37.644;2023-03-31T01:18:26;3.62;79.59
75786;DHT22;64402;44.708;37.644;2023-03-31T01:36:09;4.24;76.93
75786;DHT22;64402;44.708;37.644;2023-03-31T01:46:47;4.51;76.54
75786;DHT22;64402;44.708;37.644;2023-03-31T01:49:38;4.60;76.02
75786;DHT22;64402;44.708;37.644;2023-03-31T01:54:59;4.74;75.22
75786;DHT22;64402;44.708;37.644;2023-03-31T01:57:36;4.79;76.06
75786;DHT22;64402;44.708;37.644;2023-03-31T02:00:13;4.79;76.45
75786;DHT22;64402;44.708;37.644;2023-03-31T02:02:48;4.77;77.94
75786;DHT22;64402;44.708;37.644;2023-03-31T02:05:21;4.75;80.88
75786;DHT22;64402;44.708;37.644;2023-03-31T02:07:56;4.68;83.31
75786;DHT22;64402;44.708;37.644;2023-03-31T02:10:26;4.35;90.11
75786;DHT22;64402;44.708;37.644;2023-03-31T02:12:56;4.19;90.11
75786;DHT22;64402;44.708;37.644;2023-03-31T02:15:27;4.12;91.21
75786;DHT22;64402;44.708;37.644;2023-03-31T02:17:57;4.05;90.48
75786;DHT22;64402;44.708;37.644;2023-03-31T02:20:26;4.02;90.99
75786;DHT22;64402;44.708;37.644;2023-03-31T02:22:55;4.03;90.47
75786;DHT22;64402;44.708;37.644;2023-03-31T02:25:26;4.03;89.73
75786;DHT22;64402;44.708;37.644;2023-03-31T02:28:02;4.07;89.37
75786;DHT22;64402;44.708;37.644;2023-03-31T02:33:48;4.12;87.52
75786;DHT22;64402;44.708;37.644;2023-03-31T02:36:15;4.12;86.61
75786;DHT22;64402;44.708;37.644;2023-03-31T02:38:48;4.15;85.89
75786;DHT22;64402;44.708;37.644;2023-03-31T02:41:16;4.17;86.13
75786;DHT22;64402;44.708;37.644;2023-03-31T02:43:43;4.19;86.23
75786;DHT22;64402;44.708;37.644;2023-03-31T02:46:09;4.19;85.12
75786;DHT22;64402;44.708;37.644;2023-03-31T02:48:40;4.17;85.45
75786;DHT22;64402;44.708;37.644;2023-03-31T03:07:35;4.43;81.87
75786;DHT22;64402;44.708;37.644;2023-03-31T03:10:09;4.51;81.24
75786;DHT22;64402;44.708;37.644;2023-03-31T03:15:53;4.73;81.82
75786;DHT22;64402;44.708;37.644;2023-03-31T03:18:21;4.80;80.88
75786;DHT22;64402;44.708;37.644;2023-03-31T03:20:48;4.82;81.91
75786;DHT22;64402;44.708;37.644;2023-03-31T03:23:16;4.84;81.92
75786;DHT22;64402;44.708;37.644;2023-03-31T03:25:43;4.87;81.72
75786;DHT22;64402;44.708;37.644;2023-03-31T03:28:10;4.91;81.48
75786;DHT22;64402;44.708;37.644;2023-03-31T03:30:36;4.95;80.28
75786;DHT22;64402;44.708;37.644;2023-03-31T03:33:03;5.00;80.43
75786;DHT22;64402;44.708;37.644;2023-03-31T03:35:32;5.05;79.59
75786;DHT22;64402;44.708;37.644;2023-03-31T03:37:59;5.11;79.96
75786;DHT22;64402;44.708;37.644;2023-03-31T03:40:26;5.13;80.17
75786;DHT22;64402;44.708;37.644;2023-03-31T03:42:52;5.16;79.42
75786;DHT22;64402;44.708;37.644;2023-03-31T03:45:18;5.21;79.45
75786;DHT22;64402;44.708;37.644;2023-03-31T03:47:45;5.25;78.95
75786;DHT22;64402;44.708;37.644;2023-03-31T03:50:12;5.31;79.13
75786;DHT22;64402;44.708;37.644;2023-03-31T03:52:38;5.36;78.89
75786;DHT22;64402;44.708;37.644;2023-03-31T03:55:05;5.41;78.50
75786;DHT22;64402;44.708;37.644;2023-03-31T03:57:31;5.47;78.70
75786;DHT22;64402;44.708;37.644;2023-03-31T03:59:57;5.51;78.43
75786;DHT22;64402;44.708;37.644;2023-03-31T04:02:23;5.59;78.33
75786;DHT22;64402;44.708;37.644;2023-03-31T04:04:50;5.65;77.69
75786;DHT22;64402;44.708;37.644;2023-03-31T04:07:16;5.72;76.95
75786;DHT22;64402;44.708;37.644;2023-03-31T04:09:42;5.74;77.99
75786;DHT22;64402;44.708;37.644;2023-03-31T04:12:08;5.72;79.43
75786;DHT22;64402;44.708;37.644;2023-03-31T04:14:34;5.60;82.94
75786;DHT22;64402;44.708;37.644;2023-03-31T04:17:00;5.51;84.84
75786;DHT22;64402;44.708;37.644;2023-03-31T04:19:27;5.49;82.90
75786;DHT22;64402;44.708;37.644;2023-03-31T04:21:53;5.49;83.55
75786;DHT22;64402;44.708;37.644;2023-03-31T04:24:26;5.51;83.78
75786;DHT22;64402;44.708;37.644;2023-03-31T04:26:58;5.53;83.24
75786;DHT22;64402;44.708;37.644;2023-03-31T04:29:25;5.59;82.95
75786;DHT22;64402;44.708;37.644;2023-03-31T04:31:53;5.61;82.26
75786;DHT22;64402;44.708;37.644;2023-03-31T04:34:24;5.66;82.84
75786;DHT22;64402;44.708;37.644;2023-03-31T04:36:51;5.71;81.36
75786;DHT22;64402;44.708;37.644;2023-03-31T04:39:21;5.81;80.52
75786;DHT22;64402;44.708;37.644;2023-03-31T04:41:56;5.94;79.35
75786;DHT22;64402;44.708;37.644;2023-03-31T04:44:23;6.08;77.27
75786;DHT22;64402;44.708;37.644;2023-03-31T04:46:49;6.16;77.50
75786;DHT22;64402;44.708;37.644;2023-03-31T04:49:15;6.23;73.09
75786;DHT22;64402;44.708;37.644;2023-03-31T04:51:41;6.28;71.75
75786;DHT22;64402;44.708;37.644;2023-03-31T04:54:09;6.33;72.24
75786;DHT22;64402;44.708;37.644;2023-03-31T04:56:35;6.34;69.98
75786;DHT22;64402;44.708;37.644;2023-03-31T04:59:02;6.42;69.12
75786;DHT22;64402;44.708;37.644;2023-03-31T05:01:29;6.49;69.46
75786;DHT22;64402;44.708;37.644;2023-03-31T05:03:58;6.55;65.75
75786;DHT22;64402;44.708;37.644;2023-03-31T05:06:25;6.66;65.17
75786;DHT22;64402;44.708;37.644;2023-03-31T05:08:55;6.73;63.70
75786;DHT22;64402;44.708;37.644;2023-03-31T05:11:21;6.86;63.31
75786;DHT22;64402;44.708;37.644;2023-03-31T05:13:48;6.97;63.54
75786;DHT22;64402;44.708;37.644;2023-03-31T05:16:14;7.03;62.76
75786;DHT22;64402;44.708;37.644;2023-03-31T05:18:41;7.15;61.73
75786;DHT22;64402;44.708;37.644;2023-03-31T05:21:12;7.26;62.88
75786;DHT22;64402;44.708;37.644;2023-03-31T05:23:39;7.35;60.53
75786;DHT22;64402;44.708;37.644;2023-03-31T05:26:05;7.44;60.58
75786;DHT22;64402;44.708;37.644;2023-03-31T05:28:33;7.56;60.80
75786;DHT22;64402;44.708;37.644;2023-03-31T05:31:01;7.73;60.50
75786;DHT22;64402;44.708;37.644;2023-03-31T05:33:27;7.91;59.19
75786;DHT22;64402;44.708;37.644;2023-03-31T05:35:54;8.07;57.68
75786;DHT22;64402;44.708;37.644;2023-03-31T05:38:20;8.09;56.61
75786;DHT22;64402;44.708;37.644;2023-03-31T05:40:47;8.17;56.71
75786;DHT22;64402;44.708;37.644;2023-03-31T05:43:13;8.22;56.48
75786;DHT22;64402;44.708;37.644;2023-03-31T05:45:39;8.27;58.02
75786;DHT22;64402;44.708;37.644;2023-03-31T05:48:06;8.29;56.76
75786;DHT22;64402;44.708;37.644;2023-03-31T05:50:32;8.19;55.74
75786;DHT22;64402;44.708;37.644;2023-03-31T05:52:58;8.17;57.42
75786;DHT22;64402;44.708;37.644;2023-03-31T05:55:24;8.12;56.84
75786;DHT22;64402;44.708;37.644;2023-03-31T05:57:50;8.05;57.76
75786;DHT22;64402;44.708;37.644;2023-03-31T06:00:17;7.91;53.16
75786;DHT22;64402;44.708;37.644;2023-03-31T06:02:43;7.90;55.75
75786;DHT22;64402;44.708;37.644;2023-03-31T06:05:09;7.86;54.55
75786;DHT22;64402;44.708;37.644;2023-03-31T06:07:36;7.85;56.22
75786;DHT22;64402;44.708;37.644;2023-03-31T06:10:02;7.90;55.26
75786;DHT22;64402;44.708;37.644;2023-03-31T06:12:28;7.83;55.70
75786;DHT22;64402;44.708;37.644;2023-03-31T06:14:56;7.90;56.72
75786;DHT22;64402;44.708;37.644;2023-03-31T06:17:22;7.99;58.00
75786;DHT22;64402;44.708;37.644;2023-03-31T06:19:48;8.15;58.00
75786;DHT22;64402;44.708;37.644;2023-03-31T06:22:15;8.11;57.10
75786;DHT22;64402;44.708;37.644;2023-03-31T06:24:41;8.09;56.23
75786;DHT22;64402;44.708;37.644;2023-03-31T06:27:07;8.14;56.32
75786;DHT22;64402;44.708;37.644;2023-03-31T06:29:33;8.20;56.02
75786;DHT22;64402;44.708;37.644;2023-03-31T06:31:59;8.19;56.00
75786;DHT22;64402;44.708;37.644;2023-03-31T06:34:26;8.36;55.76
75786;DHT22;64402;44.708;37.644;2023-03-31T06:36:52;8.45;53.84
75786;DHT22;64402;44.708;37.644;2023-03-31T06:39:18;8.63;53.05
75786;DHT22;64402;44.708;37.644;2023-03-31T06:41:44;8.71;53.79
75786;DHT22;64402;44.708;37.644;2023-03-31T06:44:10;8.96;54.71
75786;DHT22;64402;44.708;37.644;2023-03-31T06:46:37;9.03;54.42
75786;DHT22;64402;44.708;37.644;2023-03-31T06:49:03;9.03;55.83
75786;DHT22;64402;44.708;37.644;2023-03-31T06:51:29;9.17;55.83
75786;DHT22;64402;44.708;37.644;2023-03-31T06:53:55;9.41;54.66
75786;DHT22;64402;44.708;37.644;2023-03-31T06:56:22;9.23;55.89
75786;DHT22;64402;44.708;37.644;2023-03-31T06:58:48;9.14;55.52
75786;DHT22;64402;44.708;37.644;2023-03-31T07:01:14;9.01;54.72
75786;DHT22;64402;44.708;37.644;2023-03-31T07:03:40;8.83;54.43
75786;DHT22;64402;44.708;37.644;2023-03-31T07:06:06;9.08;54.48
75786;DHT22;64402;44.708;37.644;2023-03-31T07:08:33;9.06;55.96
75786;DHT22;64402;44.708;37.644;2023-03-31T07:11:00;9.21;55.47
75786;DHT22;64402;44.708;37.644;2023-03-31T07:13:26;9.11;54.87
75786;DHT22;64402;44.708;37.644;2023-03-31T07:15:53;8.87;55.82
75786;DHT22;64402;44.708;37.644;2023-03-31T07:18:20;9.08;56.10
75786;DHT22;64402;44.708;37.644;2023-03-31T07:20:48;9.22;55.83
75786;DHT22;64402;44.708;37.644;2023-03-31T07:23:18;9.24;55.12
75786;DHT22;64402;44.708;37.644;2023-03-31T07:25:46;9.07;56.24
75786;DHT22;64402;44.708;37.644;2023-03-31T07:28:12;9.23;56.11
75786;DHT22;64402;44.708;37.644;2023-03-31T07:30:39;9.41;56.03
75786;DHT22;64402;44.708;37.644;2023-03-31T07:33:06;9.49;55.84
75786;DHT22;64402;44.708;37.644;2023-03-31T07:35:32;9.67;54.49
75786;DHT22;64402;44.708;37.644;2023-03-31T07:37:58;9.60;54.65
75786;DHT22;64402;44.708;37.644;2023-03-31T07:40:27;9.50;54.19
75786;DHT22;64402;44.708;37.644;2023-03-31T07:42:53;10.96;50.34
75786;DHT22;64402;44.708;37.644;2023-03-31T07:45:22;11.30;48.16
75786;DHT22;64402;44.708;37.644;2023-03-31T07:47:49;11.81;48.61
75786;DHT22;64402;44.708;37.644;2023-03-31T07:50:16;11.27;49.37
75786;DHT22;64402;44.708;37.644;2023-03-31T07:52:43;11.91;49.11
75786;DHT22;64402;44.708;37.644;2023-03-31T07:55:10;12.59;46.27
75786;DHT22;64402;44.708;37.644;2023-03-31T07:57:37;12.82;44.93
75786;DHT22;64402;44.708;37.644;2023-03-31T08:00:05;12.30;45.35
75786;DHT22;64402;44.708;37.644;2023-03-31T08:02:33;12.77;44.64
75786;DHT22;64402;44.708;37.644;2023-03-31T08:04:59;11.66;46.38
75786;DHT22;64402;44.708;37.644;2023-03-31T08:07:26;13.48;43.33
75786;DHT22;64402;44.708;37.644;2023-03-31T08:09:56;12.55;46.89
75786;DHT22;64402;44.708;37.644;2023-03-31T08:12:23;11.34;49.79
75786;DHT22;64402;44.708;37.644;2023-03-31T08:14:49;10.73;50.18
75786;DHT22;64402;44.708;37.644;2023-03-31T08:17:15;10.19;52.53
75786;DHT22;64402;44.708;37.644;2023-03-31T08:19:41;10.83;51.86
75786;DHT22;64402;44.708;37.644;2023-03-31T08:22:07;11.27;47.34
75786;DHT22;64402;44.708;37.644;2023-03-31T08:24:33;11.87;47.35
75786;DHT22;64402;44.708;37.644;2023-03-31T08:27:00;11.98;45.47
75786;DHT22;64402;44.708;37.644;2023-03-31T08:29:26;13.11;44.03
75786;DHT22;64402;44.708;37.644;2023-03-31T08:31:53;13.39;44.28
75786;DHT22;64402;44.708;37.644;2023-03-31T08:34:19;14.96;40.44
75786;DHT22;64402;44.708;37.644;2023-03-31T08:36:46;15.69;38.49
75786;DHT22;64402;44.708;37.644;2023-03-31T08:39:12;14.17;41.37
75786;DHT22;64402;44.708;37.644;2023-03-31T08:41:54;12.75;44.91
75786;DHT22;64402;44.708;37.644;2023-03-31T08:47:01;15.36;37.65
75786;DHT22;64402;44.708;37.644;2023-03-31T08:49:36;16.41;34.02
75786;DHT22;64402;44.708;37.644;2023-03-31T08:52:08;16.20;32.67
75786;DHT22;64402;44.708;37.644;2023-03-31T08:54:46;17.35;32.39
75786;DHT22;64402;44.708;37.644;2023-03-31T08:57:18;17.85;32.17
75786;DHT22;64402;44.708;37.644;2023-03-31T08:59:45;15.43;37.14
75786;DHT22;64402;44.708;37.644;2023-03-31T09:02:42;13.65;41.73
75786;DHT22;64402;44.708;37.644;2023-03-31T09:10:46;10.85;50.61
75786;DHT22;64402;44.708;37.644;2023-03-31T09:19:36;13.64;42.23
75786;DHT22;64402;44.708;37.644;2023-03-31T09:22:10;15.86;38.42
75786;DHT22;64402;44.708;37.644;2023-03-31T09:24:54;16.01;36.34
75786;DHT22;64402;44.708;37.644;2023-03-31T09:27:23;18.20;33.39
75786;DHT22;64402;44.708;37.644;2023-03-31T09:30:38;19.06;30.69
75786;DHT22;64402;44.708;37.644;2023-03-31T09:32:41;19.07;32.39
75786;DHT22;64402;44.708;37.644;2023-03-31T09:35:20;20.13;30.11
75786;DHT22;64402;44.708;37.644;2023-03-31T09:37:47;19.67;30.80
75786;DHT22;64402;44.708;37.644;2023-03-31T09:40:20;20.51;29.03
75786;DHT22;64402;44.708;37.644;2023-03-31T09:42:53;20.47;29.17
75786;DHT22;64402;44.708;37.644;2023-03-31T09:45:21;20.43;29.86
75786;DHT22;64402;44.708;37.644;2023-03-31T09:47:53;17.29;34.63
75786;DHT22;64402;44.708;37.644;2023-03-31T09:50:21;16.58;36.13
75786;DHT22;64402;44.708;37.644;2023-03-31T09:52:54;17.28;34.15
75786;DHT22;64402;44.708;37.644;2023-03-31T09:57:59;18.46;31.70
75786;DHT22;64402;44.708;37.644;2023-03-31T10:00:26;18.00;32.19
75786;DHT22;64402;44.708;37.644;2023-03-31T10:03:00;18.86;31.49
75786;DHT22;64402;44.708;37.644;2023-03-31T10:05:36;19.51;30.61
75786;DHT22;64402;44.708;37.644;2023-03-31T10:10:44;19.45;29.64
75786;DHT22;64402;44.708;37.644;2023-03-31T10:13:15;20.09;30.10
75786;DHT22;64402;44.708;37.644;2023-03-31T10:15:42;17.23;35.95
75786;DHT22;64402;44.708;37.644;2023-03-31T10:18:14;15.34;40.49
75786;DHT22;64402;44.708;37.644;2023-03-31T10:20:50;15.10;40.05
75786;DHT22;64402;44.708;37.644;2023-03-31T10:23:28;14.44;42.42
75786;DHT22;64402;44.708;37.644;2023-03-31T10:25:55;17.29;35.21
75786;DHT22;64402;44.708;37.644;2023-03-31T10:28:21;18.89;31.89
75786;DHT22;64402;44.708;37.644;2023-03-31T10:30:55;16.34;36.62
75786;DHT22;64402;44.708;37.644;2023-03-31T10:33:25;14.51;42.60
75786;DHT22;64402;44.708;37.644;2023-03-31T10:36:11;12.90;46.28
75786;DHT22;64402;44.708;37.644;2023-03-31T10:38:44;12.19;47.99
75786;DHT22;64402;44.708;37.644;2023-03-31T10:41:21;11.96;47.86
75786;DHT22;64402;44.708;37.644;2023-03-31T10:43:59;12.23;47.91
75786;DHT22;64402;44.708;37.644;2023-03-31T10:46:49;14.95;40.01
75786;DHT22;64402;44.708;37.644;2023-03-31T10:51:53;13.64;44.26
75786;DHT22;64402;44.708;37.644;2023-03-31T10:54:20;14.12;43.83
75786;DHT22;64402;44.708;37.644;2023-03-31T10:56:58;16.57;36.40
75786;DHT22;64402;44.708;37.644;2023-03-31T11:06:24;18.78;33.28
75786;DHT22;64402;44.708;37.644;2023-03-31T11:12:05;19.26;31.94
75786;DHT22;64402;44.708;37.644;2023-03-31T11:14:39;20.22;30.12
75786;DHT22;64402;44.708;37.644;2023-03-31T11:25:59;20.44;30.79
75786;DHT22;64402;44.708;37.644;2023-03-31T11:29:24;19.17;32.52
75786;DHT22;64402;44.708;37.644;2023-03-31T11:32:14;16.49;39.01
75786;DHT22;64402;44.708;37.644;2023-03-31T11:45:40;20.39;30.13
75786;DHT22;64402;44.708;37.644;2023-03-31T11:48:30;21.17;27.13
75786;DHT22;64402;44.708;37.644;2023-03-31T11:51:02;21.29;26.72
75786;DHT22;64402;44.708;37.644;2023-03-31T11:53:32;22.06;26.36
75786;DHT22;64402;44.708;37.644;2023-03-31T11:56:01;21.89;26.88
75786;DHT22;64402;44.708;37.644;2023-03-31T11:58:52;20.98;26.32
75786;DHT22;64402;44.708;37.644;2023-03-31T12:04:25;22.48;24.26
75786;DHT22;64402;44.708;37.644;2023-03-31T12:07:02;21.90;24.59
75786;DHT22;64402;44.708;37.644;2023-03-31T12:12:21;21.59;26.49
75786;DHT22;64402;44.708;37.644;2023-03-31T12:14:54;21.68;25.10
75786;DHT22;64402;44.708;37.644;2023-03-31T12:17:27;20.04;27.71
75786;DHT22;64402;44.708;37.644;2023-03-31T12:19:57;20.42;27.17
75786;DHT22;64402;44.708;37.644;2023-03-31T12:22:31;18.54;31.96
75786;DHT22;64402;44.708;37.644;2023-03-31T12:24:59;16.57;36.30
75786;DHT22;64402;44.708;37.644;2023-03-31T12:30:05;18.17;32.34
75786;DHT22;64402;44.708;37.644;2023-03-31T12:38:20;15.40;37.53
75786;DHT22;64402;44.708;37.644;2023-03-31T12:43:55;18.47;30.67
75786;DHT22;64402;44.708;37.644;2023-03-31T12:52:06;18.10;32.32
75786;DHT22;64402;44.708;37.644;2023-03-31T12:59:37;19.91;28.51
75786;DHT22;64402;44.708;37.644;2023-03-31T13:04:42;18.63;32.27
75786;DHT22;64402;44.708;37.644;2023-03-31T13:07:33;19.47;30.23
75786;DHT22;64402;44.708;37.644;2023-03-31T13:12:39;19.55;28.52
75786;DHT22;64402;44.708;37.644;2023-03-31T13:15:12;19.27;28.87
75786;DHT22;64402;44.708;37.644;2023-03-31T13:17:56;17.65;32.77
75786;DHT22;64402;44.708;37.644;2023-03-31T13:23:00;14.65;41.68
75786;DHT22;64402;44.708;37.644;2023-03-31T13:25:54;14.40;42.33
75786;DHT22;64402;44.708;37.644;2023-03-31T13:33:31;16.93;34.59
75786;DHT22;64402;44.708;37.644;2023-03-31T13:36:23;15.08;39.43
75786;DHT22;64402;44.708;37.644;2023-03-31T13:47:33;15.85;38.33
75786;DHT22;64402;44.708;37.644;2023-03-31T14:01:28;14.32;43.06
75786;DHT22;64402;44.708;37.644;2023-03-31T14:09:14;13.23;46.44
75786;DHT22;64402;44.708;37.644;2023-03-31T14:11:45;12.31;48.53
75786;DHT22;64402;44.708;37.644;2023-03-31T14:14:14;11.84;49.69
75786;DHT22;64402;44.708;37.644;2023-03-31T14:16:51;11.96;49.60
75786;DHT22;64402;44.708;37.644;2023-03-31T14:27:35;10.85;52.56
75786;DHT22;64402;44.708;37.644;2023-03-31T14:37:59;10.73;53.53
75786;DHT22;64402;44.708;37.644;2023-03-31T14:40:28;11.87;50.52
75786;DHT22;64402;44.708;37.644;2023-03-31T14:42:54;12.89;47.28
75786;DHT22;64402;44.708;37.644;2023-03-31T14:45:22;11.93;50.26
75786;DHT22;64402;44.708;37.644;2023-03-31T14:47:58;11.54;50.54
75786;DHT22;64402;44.708;37.644;2023-03-31T14:50:29;11.07;51.60
75786;DHT22;64402;44.708;37.644;2023-03-31T14:52:59;10.90;52.66
75786;DHT22;64402;44.708;37.644;2023-03-31T14:55:28;10.66;53.43
75786;DHT22;64402;44.708;37.644;2023-03-31T14:57:58;11.57;50.41
75786;DHT22;64402;44.708;37.644;2023-03-31T15:00:32;12.49;47.30
75786;DHT22;64402;44.708;37.644;2023-03-31T15:03:00;12.33;47.81
75786;DHT22;64402;44.708;37.644;2023-03-31T15:05:31;12.28;47.97
75786;DHT22;64402;44.708;37.644;2023-03-31T15:08:02;11.25;50.56
75786;DHT22;64402;44.708;37.644;2023-03-31T15:10:36;10.50;53.15
75786;DHT22;64402;44.708;37.644;2023-03-31T15:13:25;10.09;54.51
75786;DHT22;64402;44.708;37.644;2023-03-31T15:15:53;9.80;55.85
75786;DHT22;64402;44.708;37.644;2023-03-31T15:18:20;9.53;56.28
75786;DHT22;64402;44.708;37.644;2023-03-31T15:20:46;9.38;56.99
75786;DHT22;64402;44.708;37.644;2023-03-31T15:23:23;9.23;58.25
75786;DHT22;64402;44.708;37.644;2023-03-31T15:26:03;9.08;58.63
75786;DHT22;64402;44.708;37.644;2023-03-31T15:28:36;8.93;59.24
75786;DHT22;64402;44.708;37.644;2023-03-31T15:31:04;8.79;60.21
75786;DHT22;64402;44.708;37.644;2023-03-31T15:33:33;8.68;59.08
75786;DHT22;64402;44.708;37.644;2023-03-31T15:36:02;8.64;59.33
75786;DHT22;64402;44.708;37.644;2023-03-31T15:38:29;8.52;59.52
75786;DHT22;64402;44.708;37.644;2023-03-31T15:40:57;8.47;59.77
75786;DHT22;64402;44.708;37.644;2023-03-31T15:46:23;8.33;60.26
75786;DHT22;64402;44.708;37.644;2023-03-31T15:48:52;8.31;60.58
75786;DHT22;64402;44.708;37.644;2023-03-31T15:51:31;8.23;61.15
75786;DHT22;64402;44.708;37.644;2023-03-31T15:53:58;8.19;61.04
75786;DHT22;64402;44.708;37.644;2023-03-31T15:56:36;8.13;61.38
75786;DHT22;64402;44.708;37.644;2023-03-31T15:59:27;8.06;61.88
75786;DHT22;64402;44.708;37.644;2023-03-31T16:01:54;8.02;61.59
75786;DHT22;64402;44.708;37.644;2023-03-31T16:04:22;8.00;61.67
75786;DHT22;64402;44.708;37.644;2023-03-31T16:10:09;7.91;62.82
75786;DHT22;64402;44.708;37.644;2023-03-31T16:12:23;7.89;63.22
75786;DHT22;64402;44.708;37.644;2023-03-31T16:14:59;7.91;63.05
75786;DHT22;64402;44.708;37.644;2023-03-31T16:17:31;7.91;63.52
75786;DHT22;64402;44.708;37.644;2023-03-31T16:20:05;7.97;64.11
75786;DHT22;64402;44.708;37.644;2023-03-31T16:22:43;8.05;63.98
75786;DHT22;64402;44.708;37.644;2023-03-31T16:25:13;8.11;66.48
75786;DHT22;64402;44.708;37.644;2023-03-31T16:27:43;8.16;67.37
75786;DHT22;64402;44.708;37.644;2023-03-31T16:30:15;8.19;68.43
75786;DHT22;64402;44.708;37.644;2023-03-31T16:35:29;8.16;68.47
75786;DHT22;64402;44.708;37.644;2023-03-31T16:37:56;8.07;68.42
75786;DHT22;64402;44.708;37.644;2023-03-31T16:40:23;8.03;68.68
75786;DHT22;64402;44.708;37.644;2023-03-31T16:43:26;7.96;69.05
75786;DHT22;64402;44.708;37.644;2023-03-31T16:45:59;7.85;69.47
75786;DHT22;64402;44.708;37.644;2023-03-31T16:48:28;7.78;69.56
75786;DHT22;64402;44.708;37.644;2023-03-31T16:50:57;7.76;69.71
75786;DHT22;64402;44.708;37.644;2023-03-31T16:53:26;7.72;69.74
75786;DHT22;64402;44.708;37.644;2023-03-31T16:55:54;7.69;68.95
75786;DHT22;64402;44.708;37.644;2023-03-31T16:58:21;7.69;69.55
75786;DHT22;64402;44.708;37.644;2023-03-31T17:00:49;7.67;69.45
75786;DHT22;64402;44.708;37.644;2023-03-31T17:03:17;7.64;69.48
75786;DHT22;64402;44.708;37.644;2023-03-31T17:05:46;7.65;69.57
75786;DHT22;64402;44.708;37.644;2023-03-31T17:08:13;7.67;69.84
75786;DHT22;64402;44.708;37.644;2023-03-31T17:10:40;7.68;69.76
75786;DHT22;64402;44.708;37.644;2023-03-31T17:13:08;7.70;70.38
75786;DHT22;64402;44.708;37.644;2023-03-31T17:15:35;7.69;71.47
75786;DHT22;64402;44.708;37.644;2023-03-31T17:18:02;7.68;72.41
75786;DHT22;64402;44.708;37.644;2023-03-31T17:20:29;7.62;72.46
75786;DHT22;64402;44.708;37.644;2023-03-31T17:22:56;7.62;72.18
75786;DHT22;64402;44.708;37.644;2023-03-31T17:25:23;7.60;73.03
75786;DHT22;64402;44.708;37.644;2023-03-31T17:27:50;7.60;72.29
75786;DHT22;64402;44.708;37.644;2023-03-31T17:30:16;7.59;72.53
75786;DHT22;64402;44.708;37.644;2023-03-31T17:32:43;7.62;72.27
75786;DHT22;64402;44.708;37.644;2023-03-31T17:35:09;7.67;71.83
75786;DHT22;64402;44.708;37.644;2023-03-31T17:37:36;7.71;71.30
75786;DHT22;64402;44.708;37.644;2023-03-31T17:40:04;7.68;71.40
75786;DHT22;64402;44.708;37.644;2023-03-31T17:42:31;7.62;71.07
75786;DHT22;64402;44.708;37.644;2023-03-31T17:44:57;7.60;71.30
75786;DHT22;64402;44.708;37.644;2023-03-31T17:47:24;7.58;71.68
75786;DHT22;64402;44.708;37.644;2023-03-31T17:49:50;7.57;71.54
75786;DHT22;64402;44.708;37.644;2023-03-31T17:52:16;7.60;71.48
75786;DHT22;64402;44.708;37.644;2023-03-31T17:54:42;7.62;71.26
75786;DHT22;64402;44.708;37.644;2023-03-31T17:57:09;7.67;71.38
75786;DHT22;64402;44.708;37.644;2023-03-31T17:59:35;7.67;71.08
75786;DHT22;64402;44.708;37.644;2023-03-31T18:02:01;7.65;70.84
75786;DHT22;64402;44.708;37.644;2023-03-31T18:04:28;7.64;71.08
75786;DHT22;64402;44.708;37.644;2023-03-31T18:06:54;7.67;70.96
75786;DHT22;64402;44.708;37.644;2023-03-31T18:09:20;7.63;70.98
75786;DHT22;64402;44.708;37.644;2023-03-31T18:11:47;7.65;70.02
75786;DHT22;64402;44.708;37.644;2023-03-31T18:14:13;7.69;70.03
75786;DHT22;64402;44.708;37.644;2023-03-31T18:16:40;7.70;69.93
75786;DHT22;64402;44.708;37.644;2023-03-31T18:19:06;7.70;69.23
75786;DHT22;64402;44.708;37.644;2023-03-31T18:21:32;7.71;69.05
75786;DHT22;64402;44.708;37.644;2023-03-31T18:23:59;7.73;68.61
75786;DHT22;64402;44.708;37.644;2023-03-31T18:26:26;7.70;68.42
75786;DHT22;64402;44.708;37.644;2023-03-31T18:28:52;7.68;68.49
75786;DHT22;64402;44.708;37.644;2023-03-31T18:31:19;7.67;69.18
75786;DHT22;64402;44.708;37.644;2023-03-31T18:33:47;7.65;69.22
75786;DHT22;64402;44.708;37.644;2023-03-31T18:36:18;7.59;68.87
75786;DHT22;64402;44.708;37.644;2023-03-31T18:38:45;7.54;69.07
75786;DHT22;64402;44.708;37.644;2023-03-31T18:41:12;7.46;69.92
75786;DHT22;64402;44.708;37.644;2023-03-31T18:43:39;7.39;70.35
75786;DHT22;64402;44.708;37.644;2023-03-31T18:46:06;7.37;71.10
75786;DHT22;64402;44.708;37.644;2023-03-31T18:48:32;7.32;71.80
75786;DHT22;64402;44.708;37.644;2023-03-31T18:51:00;7.32;72.48
75786;DHT22;64402;44.708;37.644;2023-03-31T18:53:26;7.35;72.49
75786;DHT22;64402;44.708;37.644;2023-03-31T18:55:55;7.40;71.67
75786;DHT22;64402;44.708;37.644;2023-03-31T18:58:23;7.46;70.75